createdAt,value
2022-10-18T00:04:08.756Z,19.56
2022-10-18T00:09:10.888Z,19.45
2022-10-18T00:14:12.913Z,19.41
2022-10-18T00:19:14.992Z,19.39
2022-10-18T00:24:17.082Z,19.34
2022-10-18T00:29:18.902Z,19.25
2022-10-18T00:34:20.697Z,19.16
2022-10-18T00:39:23.093Z,19.11
2022-10-18T00:44:24.814Z,19.07
2022-10-18T00:49:43.878Z,19.09
2022-10-18T00:54:47.448Z,19.06
2022-10-18T00:59:49.403Z,19.11
2022-10-18T01:04:51.247Z,19.14
2022-10-18T01:10:14.245Z,19.19
2022-10-18T01:15:32.125Z,19.20
2022-10-18T01:21:09.219Z,19.25
2022-10-18T01:26:35.728Z,19.24
2022-10-18T01:31:48.082Z,19.24
2022-10-18T01:36:55.623Z,19.25
2022-10-18T01:42:00.999Z,19.29
2022-10-18T01:47:05.552Z,19.33
2022-10-18T01:52:09.337Z,19.33
2022-10-18T01:57:24.615Z,19.32
2022-10-18T02:02:48.763Z,19.25
2022-10-18T02:08:12.359Z,19.19
2022-10-18T02:13:22.725Z,19.18
2022-10-18T02:18:35.509Z,19.19
2022-10-18T02:23:39.042Z,19.24
2022-10-18T02:28:41.364Z,19.25
2022-10-18T02:34:21.714Z,19.28
2022-10-18T02:39:30.548Z,19.27
2022-10-18T02:44:33.744Z,19.25
2022-10-18T02:49:35.567Z,19.17
2022-10-18T02:54:37.434Z,19.11
2022-10-18T02:59:39.240Z,19.06
2022-10-18T03:04:41.071Z,19.01
2022-10-18T03:09:43.020Z,18.94
2022-10-18T03:14:44.877Z,18.87
2022-10-18T03:19:46.671Z,18.78
2022-10-18T03:24:48.506Z,18.73
2022-10-18T03:29:50.294Z,18.71
2022-10-18T03:34:52.076Z,18.66
2022-10-18T03:39:53.890Z,18.63
2022-10-18T03:44:55.694Z,18.62
2022-10-18T03:49:58.320Z,18.61
2022-10-18T03:55:00.151Z,18.58
2022-10-18T04:00:02.180Z,18.58
2022-10-18T04:05:14.250Z,18.59
2022-10-18T04:10:16.636Z,18.65
2022-10-18T04:15:18.685Z,18.69
2022-10-18T04:20:20.557Z,18.68
2022-10-18T04:25:22.527Z,18.78
2022-10-18T04:30:24.354Z,18.84
2022-10-18T04:35:27.840Z,18.92
2022-10-18T04:40:29.627Z,18.97
2022-10-18T04:45:31.456Z,18.98
2022-10-18T04:50:33.390Z,18.97
2022-10-18T04:55:35.493Z,18.88
2022-10-18T05:00:40.012Z,18.91
2022-10-18T05:06:00.954Z,18.94
2022-10-18T05:11:04.169Z,18.99
2022-10-18T05:16:06.835Z,19.02
2022-10-18T05:21:08.749Z,19.02
2022-10-18T05:26:10.546Z,19.00
2022-10-18T05:31:12.549Z,19.00
2022-10-18T05:36:14.384Z,18.98
2022-10-18T05:41:16.188Z,19.01
2022-10-18T05:46:18.020Z,18.99
2022-10-18T05:51:19.854Z,18.91
2022-10-18T05:56:21.777Z,18.93
2022-10-18T06:01:23.721Z,19.02
2022-10-18T06:06:25.516Z,19.05
2022-10-18T06:11:27.308Z,19.00
2022-10-18T06:16:32.370Z,19.03
2022-10-18T06:21:34.319Z,19.07
2022-10-18T06:26:36.100Z,19.09
2022-10-18T06:31:37.932Z,19.19
2022-10-18T06:36:39.706Z,19.21
2022-10-18T06:41:41.561Z,19.21
2022-10-18T06:46:54.167Z,19.11
2022-10-18T06:51:56.136Z,19.11
2022-10-18T06:56:58.358Z,19.15
2022-10-18T07:02:00.252Z,19.21
2022-10-18T07:07:02.160Z,19.29
2022-10-18T07:12:04.290Z,19.35
2022-10-18T07:17:06.131Z,19.39
2022-10-18T07:22:07.988Z,19.42
2022-10-18T07:27:09.800Z,19.50
2022-10-18T07:32:11.586Z,19.51
2022-10-18T07:37:13.367Z,19.60
2022-10-18T07:42:15.197Z,19.59
2022-10-18T07:47:17.130Z,19.68
2022-10-18T07:52:18.916Z,19.72
2022-10-18T07:57:21.270Z,19.78
2022-10-18T08:02:24.760Z,19.89
2022-10-18T08:07:26.824Z,19.96
2022-10-18T08:12:28.633Z,20.07
2022-10-18T08:17:30.772Z,20.11
2022-10-18T08:22:32.902Z,20.10
2022-10-18T08:27:35.080Z,20.11
2022-10-18T08:32:37.219Z,20.09
2022-10-18T08:37:40.393Z,20.13
2022-10-18T08:42:44.970Z,20.17
2022-10-18T08:47:49.974Z,20.22
2022-10-18T08:53:22.447Z,20.29
2022-10-18T08:58:31.676Z,20.25
2022-10-18T09:04:08.834Z,20.22
2022-10-18T09:09:16.614Z,20.16
2022-10-18T09:15:15.052Z,20.14
2022-10-18T09:20:23.213Z,20.18
2022-10-18T09:25:40.756Z,20.17
2022-10-18T09:30:57.186Z,20.17
2022-10-18T09:36:03.861Z,20.16
2022-10-18T09:41:13.970Z,20.23
2022-10-18T09:46:18.261Z,20.22
2022-10-18T09:51:24.129Z,20.28
2022-10-18T09:56:48.194Z,20.33
2022-10-18T10:01:50.009Z,20.35
2022-10-18T10:06:53.968Z,20.38
2022-10-18T10:11:56.891Z,20.46
2022-10-18T10:17:02.622Z,20.55
2022-10-18T10:22:04.418Z,20.70
2022-10-18T10:27:15.301Z,20.83
2022-10-18T10:32:19.840Z,20.92
2022-10-18T10:37:26.168Z,20.92
2022-10-18T10:42:28.077Z,20.95
2022-10-18T10:47:34.352Z,20.97
2022-10-18T10:52:40.286Z,20.80
2022-10-18T10:57:44.857Z,20.44
2022-10-18T11:02:59.236Z,20.08
2022-10-18T11:08:11.365Z,19.75
2022-10-18T11:13:23.825Z,19.58
2022-10-18T11:18:29.863Z,19.54
2022-10-18T11:23:33.424Z,19.49
2022-10-18T11:28:56.316Z,19.50
2022-10-18T11:34:17.649Z,19.44
2022-10-18T11:39:53.520Z,19.39
2022-10-18T11:45:04.459Z,19.34
2022-10-18T11:50:26.898Z,19.24
2022-10-18T11:55:44.059Z,19.27
2022-10-18T12:01:01.454Z,19.23
2022-10-18T12:06:22.329Z,19.28
2022-10-18T12:11:30.864Z,19.27
2022-10-18T12:17:20.182Z,19.16
2022-10-18T12:22:33.487Z,19.12
2022-10-18T12:27:52.050Z,19.14
2022-10-18T12:33:26.521Z,19.17
2022-10-18T12:38:32.015Z,19.22
2022-10-18T12:43:38.052Z,19.24
2022-10-18T12:48:43.163Z,19.28
2022-10-18T12:53:47.901Z,19.30
2022-10-18T12:58:49.707Z,19.33
2022-10-18T13:03:55.406Z,19.25
2022-10-18T13:09:21.449Z,19.20
2022-10-18T13:14:49.376Z,19.16
2022-10-18T13:20:27.322Z,19.20
2022-10-18T13:25:35.272Z,19.15
2022-10-18T13:31:10.722Z,19.19
2022-10-18T13:36:22.821Z,19.18
2022-10-18T13:41:56.713Z,19.23
2022-10-18T13:46:59.685Z,19.25
2022-10-18T13:52:29.474Z,19.29
2022-10-18T13:58:03.566Z,19.30
2022-10-18T14:03:55.555Z,19.08
2022-10-18T14:09:25.418Z,19.37
2022-10-18T14:14:36.795Z,19.41
2022-10-18T14:19:43.048Z,19.11
2022-10-18T14:24:48.914Z,19.27
2022-10-18T14:30:07.251Z,19.02
2022-10-18T14:35:33.247Z,19.12
2022-10-18T14:40:37.964Z,19.06
2022-10-18T14:45:40.904Z,19.03
2022-10-18T14:50:46.276Z,19.24
2022-10-18T14:56:04.493Z,19.43
2022-10-18T15:01:06.458Z,19.29
2022-10-18T15:06:08.632Z,19.31
2022-10-18T15:11:14.485Z,19.32
2022-10-18T15:16:22.671Z,19.31
2022-10-18T15:21:24.726Z,19.28
2022-10-18T15:26:30.176Z,18.88
2022-10-18T15:31:35.098Z,18.77
2022-10-18T15:36:37.628Z,18.63
2022-10-18T15:41:50.407Z,18.62
2022-10-18T15:46:55.873Z,18.61
2022-10-18T15:52:03.711Z,18.52
2022-10-18T15:57:10.450Z,18.52
2022-10-18T16:02:14.535Z,18.52
2022-10-18T16:07:16.417Z,18.52
2022-10-18T16:12:18.307Z,18.38
2022-10-18T16:17:20.143Z,18.36
2022-10-18T16:22:21.960Z,18.34
2022-10-18T16:27:25.082Z,18.27
2022-10-18T16:32:26.957Z,18.10
2022-10-18T16:37:28.802Z,17.94
2022-10-18T16:42:30.836Z,17.96
2022-10-18T16:47:32.874Z,17.92
2022-10-18T16:52:35.867Z,18.00
2022-10-18T16:57:37.735Z,18.06
2022-10-18T17:02:39.534Z,18.04
2022-10-18T17:07:41.896Z,18.00
2022-10-18T17:12:43.994Z,17.82
2022-10-18T17:17:47.715Z,17.78
2022-10-18T17:22:49.661Z,17.89
2022-10-18T17:27:51.443Z,17.93
2022-10-18T17:32:55.377Z,17.93
2022-10-18T17:37:57.390Z,17.88
2022-10-18T17:42:59.645Z,17.89
2022-10-18T17:48:01.722Z,17.85
2022-10-18T17:53:03.587Z,17.66
2022-10-18T17:58:05.767Z,17.51
2022-10-18T18:03:07.637Z,17.29
2022-10-18T18:08:09.491Z,17.31
2022-10-18T18:13:14.051Z,17.29
2022-10-18T18:18:18.789Z,17.26
2022-10-18T18:23:20.880Z,17.28
2022-10-18T18:28:22.799Z,17.18
2022-10-18T18:33:24.691Z,17.04
2022-10-18T18:38:26.870Z,17.11
2022-10-18T18:43:29.084Z,17.24
2022-10-18T18:48:32.918Z,17.29
2022-10-18T18:53:35.148Z,17.28
2022-10-18T18:58:38.415Z,17.34
2022-10-18T19:03:40.927Z,17.35
2022-10-18T19:08:46.411Z,17.75
2022-10-18T19:13:49.084Z,17.88
2022-10-18T19:19:05.420Z,17.95
2022-10-18T19:24:07.639Z,17.92
2022-10-18T19:29:13.517Z,17.96
2022-10-18T19:34:17.285Z,18.00
2022-10-18T19:39:22.036Z,17.60
2022-10-18T19:44:26.218Z,17.44
2022-10-18T19:49:28.874Z,17.34
2022-10-18T19:54:30.946Z,17.32
2022-10-18T19:59:32.897Z,17.29
2022-10-18T20:04:35.261Z,17.28
2022-10-18T20:09:37.055Z,17.25
2022-10-18T20:14:38.963Z,17.18
2022-10-18T20:19:40.781Z,17.06
2022-10-18T20:24:42.507Z,17.00
2022-10-18T20:29:44.266Z,17.38
2022-10-18T20:34:45.999Z,17.44
2022-10-18T20:39:47.768Z,17.44
2022-10-18T20:44:50.090Z,17.35
2022-10-18T20:49:51.873Z,17.33
2022-10-18T20:54:53.681Z,17.28
2022-10-18T20:59:55.472Z,17.23
2022-10-18T21:04:57.273Z,17.17
2022-10-18T21:09:59.100Z,17.04
2022-10-18T21:15:00.885Z,17.10
2022-10-18T21:20:02.935Z,17.14
2022-10-18T21:25:05.215Z,17.11
2022-10-18T21:30:07.654Z,17.16
2022-10-18T21:35:10.242Z,17.17
2022-10-18T21:40:12.323Z,17.12
2022-10-18T21:45:14.400Z,17.18
2022-10-18T21:50:16.627Z,17.04
2022-10-18T21:55:18.590Z,17.06
2022-10-18T22:00:20.551Z,17.10
2022-10-18T22:05:22.536Z,17.19
2022-10-18T22:10:24.773Z,17.31
2022-10-18T22:15:26.888Z,17.37
2022-10-18T22:20:28.876Z,17.29
2022-10-18T22:25:30.866Z,17.27
2022-10-18T22:30:36.503Z,17.37
2022-10-18T22:35:38.462Z,17.43
2022-10-18T22:40:40.368Z,17.45
2022-10-18T22:45:42.365Z,17.43
2022-10-18T22:50:44.304Z,17.39
2022-10-18T22:55:48.436Z,17.39
2022-10-18T23:00:50.617Z,17.29
2022-10-18T23:05:52.524Z,17.28
2022-10-18T23:10:56.800Z,17.28
2022-10-18T23:16:04.543Z,17.26
2022-10-18T23:21:12.504Z,17.11
2022-10-18T23:26:16.361Z,17.03
2022-10-18T23:31:22.016Z,17.03
2022-10-18T23:36:24.838Z,16.88
2022-10-18T23:41:27.184Z,16.90
2022-10-18T23:46:29.126Z,16.93
2022-10-18T23:51:31.048Z,16.91
2022-10-18T23:56:32.967Z,16.87
